createdAt,value
2023-05-21T05:31:33.170Z,19.6594
2023-05-21T05:32:35.139Z,19.2703
2023-05-21T05:33:37.118Z,19.2855
2023-05-21T05:34:39.171Z,19.4423
2023-05-21T05:35:41.235Z,19.5840
2023-05-21T05:36:43.274Z,19.6978
2023-05-21T05:37:45.313Z,19.7787
2023-05-21T05:38:47.380Z,19.8490
2023-05-21T05:39:49.383Z,19.8814
2023-05-21T05:40:51.430Z,19.9202
2023-05-21T05:41:53.511Z,19.9989
2023-05-21T05:42:55.553Z,20.0733
2023-05-21T05:43:57.588Z,20.0883
2023-05-21T05:44:59.632Z,20.1532
2023-05-21T05:46:01.703Z,20.1846
2023-05-21T05:47:03.709Z,20.2329
2023-05-21T05:48:05.766Z,20.2929
2023-05-21T05:49:07.806Z,20.3282
2023-05-21T05:50:09.867Z,20.3732
2023-05-21T05:51:11.920Z,20.3836
2023-05-21T05:52:13.939Z,20.3822
2023-05-21T05:53:15.976Z,20.4214
2023-05-21T05:54:18.022Z,20.4395
2023-05-21T05:55:20.098Z,20.4128
2023-05-21T05:56:22.138Z,20.4233
2023-05-21T05:57:24.155Z,20.4348
2023-05-21T05:58:26.231Z,20.4512
2023-05-21T05:59:28.288Z,20.4562
2023-05-21T06:00:30.350Z,20.4956
2023-05-21T06:01:32.370Z,20.4966
2023-05-21T06:02:34.467Z,20.4775
2023-05-21T06:03:36.679Z,20.5227
2023-05-21T06:04:38.489Z,20.5307
2023-05-21T06:05:40.780Z,20.5266
2023-05-21T06:06:42.591Z,20.5543
2023-05-21T06:07:44.608Z,20.5578
2023-05-21T06:08:46.666Z,20.5632
2023-05-21T06:09:48.715Z,20.5874
2023-05-21T06:10:50.753Z,20.6057
2023-05-21T06:11:52.793Z,20.5948
2023-05-21T06:12:54.851Z,20.5613
2023-05-21T06:13:56.884Z,20.5500
2023-05-21T06:14:58.928Z,20.5476
2023-05-21T06:16:01.043Z,20.5356
2023-05-21T06:17:03.036Z,20.5601
2023-05-21T06:18:05.071Z,20.5609
2023-05-21T06:19:07.128Z,20.5572
2023-05-21T06:20:09.129Z,20.5646
2023-05-21T06:21:11.199Z,20.6090
2023-05-21T06:22:13.262Z,20.6100
2023-05-21T06:23:15.285Z,20.6254
2023-05-21T06:24:17.312Z,20.6172
2023-05-21T06:25:19.375Z,20.6047
2023-05-21T06:26:21.414Z,20.6133
2023-05-21T06:27:23.455Z,20.6147
2023-05-21T06:28:25.490Z,20.5841
2023-05-21T06:29:27.586Z,20.5496
2023-05-21T06:30:29.608Z,20.5496
2023-05-21T06:31:31.630Z,20.5925
2023-05-21T06:32:33.821Z,20.6092
2023-05-21T06:33:35.844Z,20.6275
2023-05-21T06:34:37.793Z,20.6536
2023-05-21T06:35:39.820Z,20.6646
2023-05-21T06:36:41.884Z,20.6145
2023-05-21T06:37:43.939Z,20.6591
2023-05-21T06:38:45.970Z,20.6628
2023-05-21T06:39:48.035Z,20.6365
2023-05-21T06:40:50.049Z,20.6496
2023-05-21T06:41:52.084Z,20.6681
2023-05-21T06:42:54.149Z,20.6544
2023-05-21T06:43:56.188Z,20.6665
2023-05-21T06:44:58.239Z,20.6628
2023-05-21T06:46:00.298Z,20.6577
2023-05-21T06:47:02.305Z,20.6531
2023-05-21T06:48:04.401Z,20.6583
2023-05-21T06:49:06.426Z,20.6351
2023-05-21T06:50:08.461Z,20.6630
2023-05-21T06:51:10.526Z,20.6996
2023-05-21T06:52:12.646Z,20.6751
2023-05-21T06:53:14.580Z,20.6663
2023-05-21T06:54:16.677Z,20.6731
2023-05-21T06:55:18.701Z,20.6761
2023-05-21T06:56:20.735Z,20.6679
2023-05-21T06:57:22.774Z,20.6470
2023-05-21T06:58:24.805Z,20.6369
2023-05-21T06:59:26.869Z,20.6496
2023-05-21T07:00:28.918Z,20.6472
2023-05-21T07:01:31.024Z,20.6410
2023-05-21T07:02:33.181Z,20.6501
2023-05-21T07:03:35.090Z,20.6593
2023-05-21T07:04:37.103Z,20.6817
2023-05-21T07:05:39.643Z,20.6985
2023-05-21T07:06:41.181Z,20.6852
2023-05-21T07:07:43.224Z,20.6080
2023-05-21T07:08:45.295Z,20.6431
2023-05-21T07:09:47.344Z,20.6420
2023-05-21T07:10:49.388Z,20.6638
2023-05-21T07:11:59.002Z,20.6798
2023-05-21T07:12:54.019Z,20.6982
2023-05-21T07:13:55.588Z,20.7061
2023-05-21T07:14:59.371Z,20.7211
2023-05-21T07:15:59.599Z,20.6963
2023-05-21T07:17:01.744Z,20.7127
2023-05-21T07:18:04.519Z,20.7361
2023-05-21T07:19:05.913Z,20.7680
2023-05-21T07:20:07.769Z,20.7906
2023-05-21T07:21:09.822Z,20.7782
2023-05-21T07:22:11.906Z,20.7988
2023-05-21T07:23:13.930Z,20.8419
2023-05-21T07:24:15.982Z,20.8540
2023-05-21T07:25:18.047Z,20.8624
2023-05-21T07:26:20.045Z,20.8694
2023-05-21T07:27:25.738Z,20.8803
2023-05-21T07:28:24.174Z,20.9066
2023-05-21T07:29:26.224Z,20.9298
2023-05-21T07:30:28.252Z,20.9087
2023-05-21T07:31:30.371Z,20.9107
2023-05-21T07:32:32.357Z,20.9189
2023-05-21T07:33:34.408Z,20.9060
2023-05-21T07:34:36.444Z,20.8433
2023-05-21T07:35:38.602Z,20.8674
2023-05-21T07:36:40.567Z,20.8935
2023-05-21T07:37:42.578Z,20.9095
2023-05-21T07:38:44.620Z,20.9037
2023-05-21T07:39:46.666Z,20.9039
2023-05-21T07:40:48.707Z,20.8596
2023-05-21T07:41:50.780Z,20.8735
2023-05-21T07:42:52.836Z,20.8822
2023-05-21T07:43:54.868Z,20.8900
2023-05-21T07:44:56.918Z,20.9157
2023-05-21T07:45:58.983Z,20.9216
2023-05-21T07:47:01.011Z,20.9249
2023-05-21T07:48:03.138Z,20.9415
2023-05-21T07:49:05.120Z,20.9304
2023-05-21T07:50:07.134Z,20.9438
2023-05-21T07:51:09.210Z,20.9428
2023-05-21T07:52:11.251Z,20.9497
2023-05-21T07:53:13.336Z,20.9177
2023-05-21T07:54:15.404Z,20.8834
2023-05-21T07:55:18.034Z,20.8795
2023-05-21T07:56:19.410Z,20.8764
2023-05-21T07:57:21.500Z,20.8783
2023-05-21T07:58:23.517Z,20.8848
2023-05-21T07:59:26.586Z,20.9062
2023-05-21T08:00:27.596Z,20.8900
2023-05-21T08:01:29.662Z,20.8809
2023-05-21T08:02:31.792Z,20.9039
2023-05-21T08:03:33.920Z,20.9027
2023-05-21T08:04:37.478Z,20.9007
2023-05-21T08:05:38.147Z,20.8976
2023-05-21T08:06:40.228Z,20.8924
2023-05-21T08:07:41.918Z,20.8703
2023-05-21T08:08:44.000Z,20.8725
2023-05-21T08:09:46.052Z,20.9202
2023-05-21T08:10:48.089Z,20.9175
2023-05-21T08:11:50.222Z,20.9473
2023-05-21T08:12:52.194Z,20.9473
2023-05-21T08:13:54.250Z,20.9148
2023-05-21T08:14:56.261Z,20.9126
2023-05-21T08:15:58.339Z,20.9465
2023-05-21T08:17:00.381Z,20.9471
2023-05-21T08:18:02.535Z,20.9497
2023-05-21T08:19:04.502Z,20.9419
2023-05-21T08:20:06.512Z,20.9066
2023-05-21T08:21:08.579Z,20.8633
2023-05-21T08:22:10.655Z,20.8546
2023-05-21T08:23:12.721Z,20.8448
2023-05-21T08:24:14.819Z,20.8296
2023-05-21T08:25:16.734Z,20.8629
2023-05-21T08:26:18.821Z,20.8725
2023-05-21T08:27:20.830Z,20.8834
2023-05-21T08:28:22.900Z,20.9007
2023-05-21T08:29:24.924Z,20.8532
2023-05-21T08:30:27.146Z,20.8051
2023-05-21T08:31:29.204Z,20.7655
2023-05-21T08:32:31.124Z,20.7332
2023-05-21T08:33:33.138Z,20.7550
2023-05-21T08:34:36.685Z,20.7554
2023-05-21T08:35:37.382Z,20.7765
2023-05-21T08:36:39.359Z,20.7867
2023-05-21T08:37:41.339Z,20.8053
2023-05-21T08:38:43.362Z,20.8487
2023-05-21T08:39:45.506Z,20.9013
2023-05-21T08:40:47.456Z,20.9477
2023-05-21T08:41:49.770Z,20.9832
2023-05-21T08:42:51.594Z,20.9237
2023-05-21T08:43:54.952Z,20.9352
2023-05-21T08:44:55.727Z,20.9306
2023-05-21T08:45:57.711Z,20.9652
2023-05-21T08:46:59.759Z,20.9908
2023-05-21T08:48:01.835Z,21.0132
2023-05-21T08:49:03.868Z,20.9902
2023-05-21T08:50:05.871Z,20.9990
2023-05-21T08:51:07.937Z,21.0221
2023-05-21T08:52:09.985Z,21.0514
2023-05-21T08:53:23.417Z,21.0771
2023-05-21T08:54:14.097Z,21.0923
2023-05-21T08:55:16.122Z,21.0907
2023-05-21T08:56:18.285Z,21.1163
2023-05-21T08:57:20.256Z,21.0414
2023-05-21T08:58:22.285Z,21.0510
2023-05-21T08:59:24.342Z,21.0709
2023-05-21T09:00:26.373Z,21.0865
2023-05-21T09:01:28.498Z,21.1231
2023-05-21T09:02:30.535Z,21.1274
2023-05-21T09:03:32.579Z,21.1459
2023-05-21T09:04:34.739Z,21.1418
2023-05-21T09:05:36.797Z,21.1738
2023-05-21T09:06:38.741Z,21.2075
2023-05-21T09:07:40.745Z,21.2131
2023-05-21T09:08:42.780Z,21.2063
2023-05-21T09:09:44.823Z,21.1771
2023-05-21T09:10:46.904Z,21.1609
2023-05-21T09:11:48.927Z,21.0989
2023-05-21T09:12:52.019Z,21.0297
2023-05-21T09:13:53.032Z,21.0438
2023-05-21T09:14:55.044Z,21.0529
2023-05-21T09:15:57.099Z,21.0701
2023-05-21T09:16:59.428Z,21.1077
2023-05-21T09:18:01.237Z,21.1334
2023-05-21T09:19:04.603Z,21.1434
2023-05-21T09:20:05.350Z,21.1026
2023-05-21T09:21:07.377Z,21.1063
2023-05-21T09:22:09.415Z,21.1379
2023-05-21T09:23:11.535Z,21.1073
2023-05-21T09:24:13.518Z,21.1291
2023-05-21T09:25:15.675Z,21.1665
2023-05-21T09:26:17.614Z,21.1890
2023-05-21T09:27:19.668Z,21.2277
2023-05-21T09:28:21.756Z,21.2907
2023-05-21T09:29:23.737Z,21.2885
2023-05-21T09:30:28.814Z,21.3004
2023-05-21T09:31:27.902Z,21.3006
2023-05-21T09:32:29.964Z,21.3314
2023-05-21T09:33:32.010Z,21.1952
2023-05-21T09:34:34.060Z,21.2501
2023-05-21T09:35:37.503Z,21.2763
2023-05-21T09:36:38.192Z,21.3080
2023-05-21T09:37:40.231Z,21.2786
2023-05-21T09:38:42.283Z,21.2217
2023-05-21T09:39:44.303Z,21.1274
2023-05-21T09:40:46.396Z,21.1736
2023-05-21T09:41:48.417Z,21.1831
2023-05-21T09:42:50.488Z,21.2270
2023-05-21T09:43:52.499Z,21.2252
2023-05-21T09:44:54.536Z,21.2560
2023-05-21T09:45:57.750Z,21.2983
2023-05-21T09:46:58.843Z,21.3250
2023-05-21T09:48:00.802Z,21.3468
2023-05-21T09:49:02.746Z,21.3371
2023-05-21T09:50:04.821Z,21.3554
2023-05-21T09:51:06.816Z,21.4101
2023-05-21T09:52:08.870Z,21.4415
2023-05-21T09:53:10.968Z,21.4797
2023-05-21T09:54:12.986Z,21.5119
2023-05-21T09:55:15.019Z,21.4957
2023-05-21T09:56:17.105Z,21.4813
2023-05-21T09:57:19.131Z,21.4887
2023-05-21T09:58:21.212Z,21.5419
2023-05-21T09:59:23.799Z,21.5586
2023-05-21T10:00:25.257Z,21.6023
2023-05-21T10:01:27.374Z,21.6161
2023-05-21T10:02:29.428Z,21.6354
2023-05-21T10:03:31.434Z,21.6863
2023-05-21T10:04:33.469Z,21.6759
2023-05-21T10:05:35.521Z,21.7030
2023-05-21T10:06:37.566Z,21.7469
2023-05-21T10:07:39.595Z,21.7223
2023-05-21T10:08:41.655Z,21.6861
2023-05-21T10:09:43.714Z,21.7122
2023-05-21T10:10:45.736Z,21.7445
2023-05-21T10:11:47.801Z,21.7942
2023-05-21T10:12:49.879Z,21.7706
2023-05-21T10:13:51.882Z,21.7385
2023-05-21T10:14:53.890Z,21.8147
2023-05-21T10:15:55.950Z,21.8038
2023-05-21T10:16:58.083Z,21.8737
2023-05-21T10:18:00.080Z,21.9312
2023-05-21T10:19:02.140Z,21.8722
2023-05-21T10:20:04.135Z,21.8696
2023-05-21T10:21:06.161Z,21.8533
2023-05-21T10:22:08.209Z,21.9012
2023-05-21T10:23:10.259Z,21.8498
2023-05-21T10:24:12.312Z,21.7808
2023-05-21T10:25:14.380Z,21.7699
2023-05-21T10:26:16.394Z,21.7215
2023-05-21T10:27:18.426Z,21.8110
2023-05-21T10:28:20.518Z,21.7942
2023-05-21T10:29:22.529Z,21.8431
2023-05-21T10:30:24.559Z,21.8975
2023-05-21T10:31:26.644Z,21.8081
2023-05-21T10:32:28.966Z,21.7436
2023-05-21T10:33:30.787Z,21.7213
2023-05-21T10:34:32.738Z,21.7328
2023-05-21T10:36:36.858Z,21.5976
2023-05-21T10:37:38.905Z,21.6173
2023-05-21T10:38:41.180Z,21.6592
2023-05-21T10:39:42.973Z,21.6952
2023-05-21T10:40:45.013Z,21.6814
2023-05-21T10:41:47.163Z,21.6791
2023-05-21T10:42:49.135Z,21.6941
2023-05-21T10:43:51.202Z,21.7303
2023-05-21T10:44:53.212Z,21.7660
2023-05-21T10:45:55.361Z,21.7851
2023-05-21T10:46:57.275Z,21.8164
2023-05-21T10:47:59.318Z,21.8361
2023-05-21T10:49:01.367Z,21.9158
2023-05-21T10:50:03.415Z,21.9626
2023-05-21T10:51:05.507Z,21.9295
2023-05-21T10:52:07.508Z,21.8944
2023-05-21T10:53:10.925Z,21.9540
2023-05-21T10:54:11.571Z,21.9891
2023-05-21T10:55:13.825Z,22.0142
2023-05-21T10:56:15.729Z,22.0140
2023-05-21T10:57:17.731Z,22.0659
2023-05-21T10:58:19.748Z,22.1169
2023-05-21T10:59:21.819Z,22.0298
2023-05-21T11:00:23.853Z,22.0222
2023-05-21T11:01:26.042Z,22.1103
2023-05-21T11:02:28.003Z,22.1857
2023-05-21T11:03:30.180Z,22.2208
2023-05-21T11:04:32.023Z,22.1744
2023-05-21T11:05:34.079Z,22.2003
2023-05-21T11:06:36.128Z,22.2218
2023-05-21T11:07:38.174Z,22.2908
2023-05-21T11:08:40.217Z,22.3340
2023-05-21T11:09:42.273Z,22.3771
2023-05-21T11:10:44.288Z,22.4211
2023-05-21T11:11:46.475Z,22.4398
2023-05-21T11:12:48.382Z,22.4248
2023-05-21T11:13:50.439Z,22.4285
2023-05-21T11:14:52.445Z,22.4887
2023-05-21T11:15:54.568Z,22.5055
2023-05-21T11:16:56.578Z,22.5045
2023-05-21T11:17:58.676Z,22.4784
2023-05-21T11:19:00.902Z,22.4960
2023-05-21T11:20:02.682Z,22.5581
2023-05-21T11:21:04.747Z,22.5985
2023-05-21T11:22:06.864Z,22.6238
2023-05-21T11:23:08.824Z,22.5805
2023-05-21T11:24:10.869Z,22.6131
2023-05-21T11:25:12.909Z,22.6637
2023-05-21T11:26:14.943Z,22.6752
2023-05-21T11:27:17.118Z,22.7070
2023-05-21T11:28:19.056Z,22.6922
2023-05-21T11:29:21.113Z,22.7115
2023-05-21T11:30:23.130Z,22.6922
2023-05-21T11:31:25.219Z,22.6672
2023-05-21T11:32:27.218Z,22.6415
2023-05-21T11:33:29.375Z,22.6232
2023-05-21T11:34:31.296Z,22.5772
2023-05-21T11:35:33.346Z,22.5544
2023-05-21T11:36:36.084Z,22.5499
2023-05-21T11:37:37.404Z,22.4954
2023-05-21T11:38:39.457Z,22.4952
2023-05-21T11:39:41.600Z,22.5260
2023-05-21T11:40:43.572Z,22.5137
2023-05-21T11:41:45.610Z,22.5184
2023-05-21T11:42:47.636Z,22.5108
2023-05-21T11:43:49.681Z,22.5160
2023-05-21T11:44:51.716Z,22.5228
2023-05-21T11:45:53.852Z,22.5203
2023-05-21T11:46:55.952Z,22.5470
2023-05-21T11:47:57.917Z,22.5912
2023-05-21T11:48:59.915Z,22.6322
2023-05-21T11:50:01.953Z,22.6454
2023-05-21T11:51:04.012Z,22.6672
2023-05-21T11:52:06.064Z,22.5949
2023-05-21T11:53:08.127Z,22.6061
2023-05-21T11:54:10.218Z,22.6754
2023-05-21T11:55:12.462Z,22.6766
2023-05-21T11:56:14.235Z,22.6785
2023-05-21T11:57:16.322Z,22.7569
2023-05-21T11:58:18.354Z,22.6524
2023-05-21T11:59:20.942Z,22.6394
2023-05-21T12:00:22.484Z,22.6871
2023-05-21T12:01:24.455Z,22.7356
2023-05-21T12:02:26.555Z,22.7378
2023-05-21T12:03:28.595Z,22.7438
2023-05-21T12:04:30.575Z,22.7407
2023-05-21T12:05:32.698Z,22.7442
2023-05-21T12:06:34.695Z,22.7273
2023-05-21T12:07:36.755Z,22.8099
2023-05-21T12:08:38.753Z,22.8631
2023-05-21T12:09:40.895Z,22.9613
2023-05-21T12:10:44.427Z,23.0283
2023-05-21T12:11:44.907Z,23.0923
2023-05-21T12:12:55.610Z,23.1384
2023-05-21T12:13:49.010Z,23.1940
2023-05-21T12:14:51.017Z,23.2637
2023-05-21T12:15:53.069Z,23.3277
2023-05-21T12:16:55.163Z,23.3785
2023-05-21T12:17:57.396Z,23.3760
2023-05-21T12:18:59.250Z,23.3684
2023-05-21T12:20:01.290Z,23.4113
2023-05-21T12:21:03.349Z,23.4422
2023-05-21T12:22:05.368Z,23.5108
2023-05-21T12:23:07.418Z,23.5787
2023-05-21T12:24:09.547Z,23.5588
2023-05-21T12:25:11.535Z,23.5307
2023-05-21T12:26:13.586Z,23.4734
2023-05-21T12:27:15.735Z,23.5802
2023-05-21T12:28:17.687Z,23.5514
2023-05-21T12:29:19.702Z,23.5697
2023-05-21T12:30:21.802Z,23.5533
2023-05-21T12:31:23.846Z,23.5726
2023-05-21T12:32:25.918Z,23.6371
2023-05-21T12:33:27.894Z,23.6687
2023-05-21T12:34:29.943Z,23.5728
2023-05-21T12:35:32.082Z,23.5475
2023-05-21T12:36:34.071Z,23.5599
2023-05-21T12:37:36.111Z,23.5371
2023-05-21T12:38:38.126Z,23.5346
2023-05-21T12:39:40.175Z,23.5566
2023-05-21T12:40:42.234Z,23.6102
2023-05-21T12:41:44.281Z,23.6291
2023-05-21T12:42:46.325Z,23.6545
2023-05-21T12:43:48.371Z,23.6564
2023-05-21T12:44:50.404Z,23.6480
2023-05-21T12:45:52.503Z,23.6383
2023-05-21T12:46:54.513Z,23.6307
2023-05-21T12:47:56.753Z,23.5346
2023-05-21T12:48:58.589Z,23.4705
2023-05-21T12:50:00.641Z,23.4481
2023-05-21T12:51:02.704Z,23.3927
2023-05-21T12:52:04.761Z,23.3273
2023-05-21T12:53:06.830Z,23.2998
2023-05-21T12:54:08.832Z,23.2263
2023-05-21T12:55:10.895Z,23.0884
2023-05-21T12:56:12.917Z,22.9707
2023-05-21T12:57:14.980Z,22.9855
2023-05-21T12:58:17.002Z,22.9102
2023-05-21T12:59:19.055Z,22.8756
2023-05-21T13:00:21.107Z,22.8615
2023-05-21T13:01:23.167Z,22.8103
2023-05-21T13:02:25.243Z,22.7598
2023-05-21T13:03:27.248Z,22.7968
2023-05-21T13:04:29.308Z,22.7883
2023-05-21T13:05:31.327Z,22.7688
2023-05-21T13:06:33.388Z,22.7588
2023-05-21T13:07:35.417Z,22.7602
2023-05-21T13:08:37.489Z,22.7532
2023-05-21T13:09:39.513Z,22.7269
2023-05-21T13:10:41.565Z,22.7941
2023-05-21T13:11:43.658Z,22.8163
2023-05-21T13:12:45.700Z,22.8216
2023-05-21T13:13:47.727Z,22.8397
2023-05-21T13:14:49.773Z,22.8048
2023-05-21T13:15:51.802Z,22.7807
2023-05-21T13:16:53.869Z,22.7699
2023-05-21T13:17:56.948Z,22.7526
2023-05-21T13:18:58.031Z,22.6649
2023-05-21T13:20:00.005Z,22.6205
2023-05-21T13:21:02.021Z,22.5357
2023-05-21T13:22:04.097Z,22.5166
2023-05-21T13:23:07.263Z,22.5207
2023-05-21T13:24:08.170Z,22.4636
2023-05-21T13:25:10.235Z,22.3685
2023-05-21T13:26:12.283Z,22.4184
2023-05-21T13:27:14.330Z,22.4137
2023-05-21T13:28:16.359Z,22.4439
2023-05-21T13:29:18.437Z,22.3568
2023-05-21T13:30:20.486Z,22.4258
2023-05-21T13:31:22.492Z,22.4203
2023-05-21T13:32:24.622Z,22.4564
2023-05-21T13:33:26.801Z,22.4482
2023-05-21T13:34:28.637Z,22.4408
2023-05-21T13:35:31.177Z,22.3048
2023-05-21T13:36:32.725Z,22.3079
2023-05-21T13:37:34.765Z,22.4313
2023-05-21T13:38:36.823Z,22.5102
2023-05-21T13:39:38.897Z,22.5499
2023-05-21T13:40:41.102Z,22.5959
2023-05-21T13:41:43.044Z,22.5924
2023-05-21T13:42:45.200Z,22.5338
2023-05-21T13:43:47.117Z,22.5076
2023-05-21T13:44:49.194Z,22.5478
2023-05-21T13:45:51.228Z,22.5332
2023-05-21T13:46:53.353Z,22.5137
2023-05-21T13:47:55.363Z,22.5032
2023-05-21T13:48:57.348Z,22.5301
2023-05-21T13:49:59.412Z,22.5408
2023-05-21T13:51:01.446Z,22.5076
2023-05-21T13:52:03.579Z,22.4905
2023-05-21T13:53:05.485Z,22.4946
2023-05-21T13:54:07.544Z,22.4790
2023-05-21T13:55:09.574Z,22.4626
2023-05-21T13:56:11.637Z,22.4531
2023-05-21T13:57:13.694Z,22.4139
2023-05-21T13:58:15.746Z,22.3911
2023-05-21T13:59:17.763Z,22.3845
2023-05-21T14:00:19.831Z,22.3790
2023-05-21T14:01:21.926Z,22.3654
2023-05-21T14:02:24.042Z,22.3915
2023-05-21T14:03:26.010Z,22.4365
2023-05-21T14:04:28.007Z,22.5166
2023-05-21T14:05:30.021Z,22.5186
2023-05-21T14:06:32.101Z,22.5193
2023-05-21T14:07:34.170Z,22.4784
2023-05-21T14:08:36.214Z,22.5090
2023-05-21T14:09:38.240Z,22.5236
2023-05-21T14:10:40.308Z,22.4837
2023-05-21T14:11:42.404Z,22.5071
2023-05-21T14:12:44.343Z,22.5057
2023-05-21T14:13:46.397Z,22.5086
2023-05-21T14:14:48.498Z,22.5723
2023-05-21T14:15:50.524Z,22.7197
2023-05-21T14:16:52.873Z,22.7929
2023-05-21T14:17:54.782Z,22.9208
2023-05-21T14:18:56.687Z,23.0213
2023-05-21T14:19:58.747Z,23.1071
2023-05-21T14:21:00.764Z,23.2158
2023-05-21T14:22:02.781Z,23.3210
2023-05-21T14:23:04.832Z,23.3873
2023-05-21T14:24:07.016Z,23.4163
2023-05-21T14:25:08.968Z,23.3534
2023-05-21T14:26:11.011Z,23.2741
2023-05-21T14:27:15.273Z,23.1930
2023-05-21T14:28:15.138Z,23.1283
2023-05-21T14:29:17.054Z,23.0693
2023-05-21T14:30:19.116Z,22.9553
2023-05-21T14:31:21.154Z,22.8662
2023-05-21T14:32:23.449Z,22.8333
2023-05-21T14:33:25.270Z,22.7670
2023-05-21T14:34:27.290Z,22.7243
2023-05-21T14:35:29.396Z,22.7411
2023-05-21T14:36:31.543Z,22.7370
2023-05-21T14:37:33.474Z,22.7222
2023-05-21T14:38:35.448Z,22.7109
2023-05-21T14:39:37.507Z,22.6832
2023-05-21T14:40:39.636Z,22.6647
2023-05-21T14:41:41.627Z,22.6374
2023-05-21T14:42:43.681Z,22.5589
2023-05-21T14:43:45.685Z,22.4860
2023-05-21T14:44:47.751Z,22.5380
2023-05-21T14:45:49.786Z,22.5499
2023-05-21T14:46:51.852Z,22.4915
2023-05-21T14:47:53.940Z,22.4897
2023-05-21T14:48:55.912Z,22.5265
2023-05-21T14:49:58.074Z,22.5554
2023-05-21T14:51:00.072Z,22.5556
2023-05-21T14:52:02.050Z,22.4977
2023-05-21T14:53:04.146Z,22.5203
2023-05-21T14:54:06.129Z,22.5316
2023-05-21T14:55:08.152Z,22.5012
2023-05-21T14:56:10.259Z,22.5258
2023-05-21T14:57:12.355Z,22.5353
2023-05-21T14:58:14.773Z,22.5468
2023-05-21T14:59:16.358Z,22.5137
2023-05-21T15:00:18.420Z,22.5189
2023-05-21T15:01:20.480Z,22.5225
2023-05-21T15:02:22.559Z,22.4924
2023-05-21T15:03:24.710Z,22.5240
2023-05-21T15:04:26.686Z,22.5735
2023-05-21T15:05:28.653Z,22.5778
2023-05-21T15:06:30.696Z,22.6292
2023-05-21T15:07:32.712Z,22.6809
2023-05-21T15:08:34.850Z,22.7054
2023-05-21T15:09:36.817Z,22.6928
2023-05-21T15:10:38.911Z,22.6787
2023-05-21T15:11:40.915Z,22.6998
2023-05-21T15:12:43.032Z,22.6501
2023-05-21T15:13:44.994Z,22.6945
2023-05-21T15:14:47.021Z,22.7505
2023-05-21T15:15:49.114Z,22.8093
2023-05-21T15:16:51.249Z,22.8779
2023-05-21T15:17:53.211Z,23.0628
2023-05-21T15:18:55.238Z,23.1942
2023-05-21T15:19:57.295Z,23.2893
2023-05-21T15:20:59.339Z,23.3097
2023-05-21T15:22:01.405Z,23.3680
2023-05-21T15:24:05.452Z,23.4233
2023-05-21T15:25:07.540Z,23.3413
2023-05-21T15:26:09.554Z,23.3785
2023-05-21T15:27:11.615Z,23.5453
2023-05-21T15:28:13.665Z,23.6398
2023-05-21T15:29:15.708Z,23.6806
2023-05-21T15:30:17.745Z,23.7416
2023-05-21T15:31:19.789Z,23.8195
2023-05-21T15:32:21.920Z,23.8649
2023-05-21T15:33:23.896Z,23.9401
2023-05-21T15:34:25.958Z,24.0074
2023-05-21T15:35:28.148Z,24.0380
2023-05-21T15:36:30.007Z,24.0508
2023-05-21T15:37:32.118Z,24.0672
2023-05-21T15:38:34.133Z,24.0861
2023-05-21T15:39:36.173Z,24.1255
2023-05-21T15:40:38.233Z,24.1118
2023-05-21T15:41:40.280Z,24.1613
2023-05-21T15:42:42.288Z,24.1161
2023-05-21T15:43:44.328Z,24.0403
2023-05-21T15:44:46.449Z,24.1093
2023-05-21T15:45:48.448Z,24.1017
2023-05-21T15:46:50.524Z,24.0830
2023-05-21T15:47:52.669Z,24.0263
2023-05-21T15:48:54.580Z,23.9590
2023-05-21T15:49:56.639Z,23.8445
2023-05-21T15:50:58.655Z,23.6702
2023-05-21T15:52:00.693Z,23.6141
2023-05-21T15:53:02.758Z,23.4964
2023-05-21T15:54:04.785Z,23.4159
2023-05-21T15:55:06.832Z,23.2881
2023-05-21T15:56:08.871Z,23.0098
2023-05-21T15:57:10.951Z,22.7814
2023-05-21T15:58:13.003Z,22.6059
2023-05-21T15:59:15.042Z,22.4244
